createdAt,value
2019-02-11T00:00:33.316Z,0.70
2019-02-11T00:03:22.970Z,0.73
2019-02-11T00:06:13.177Z,0.70
2019-02-11T00:09:04.577Z,0.60
2019-02-11T00:11:56.318Z,0.60
2019-02-11T00:14:46.318Z,0.70
2019-02-11T00:17:35.863Z,0.70
2019-02-11T00:20:25.894Z,2.43
2019-02-11T00:23:15.540Z,1.03
2019-02-11T00:26:05.537Z,2.40
2019-02-11T00:28:55.305Z,3.33
2019-02-11T00:31:45.534Z,0.90
2019-02-11T00:34:35.144Z,0.70
2019-02-11T00:37:24.930Z,0.70
2019-02-11T00:40:14.987Z,2.90
2019-02-11T00:43:04.937Z,1.50
2019-02-11T00:45:54.850Z,4.20
2019-02-11T00:48:44.956Z,1.77
2019-02-11T00:51:35.077Z,2.10
2019-02-11T00:54:24.889Z,0.90
2019-02-11T00:57:14.893Z,1.00
2019-02-11T01:00:05.594Z,0.80
2019-02-11T01:02:55.407Z,1.00
2019-02-11T01:05:45.120Z,0.80
2019-02-11T01:08:35.387Z,1.20
2019-02-11T01:11:25.482Z,1.10
2019-02-11T01:14:15.586Z,0.80
2019-02-11T01:17:05.665Z,2.90
2019-02-11T01:19:55.899Z,1.93
2019-02-11T01:22:45.762Z,0.67
2019-02-11T01:25:35.442Z,0.80
2019-02-11T01:28:25.079Z,1.97
2019-02-11T01:31:15.108Z,0.70
2019-02-11T01:34:05.062Z,0.60
2019-02-11T01:36:54.909Z,0.70
2019-02-11T01:39:44.902Z,0.70
2019-02-11T01:42:35.148Z,0.80
2019-02-11T01:45:25.060Z,0.70
2019-02-11T01:48:14.749Z,0.80
2019-02-11T01:51:04.788Z,1.00
2019-02-11T01:53:54.566Z,1.40
2019-02-11T01:56:44.442Z,1.00
2019-02-11T01:59:34.564Z,1.03
2019-02-11T02:02:24.392Z,4.00
2019-02-11T02:05:14.061Z,0.80
2019-02-11T02:08:03.943Z,1.00
2019-02-11T02:10:53.802Z,1.87
2019-02-11T02:13:44.825Z,1.40
2019-02-11T02:16:34.915Z,1.30
2019-02-11T02:19:26.122Z,1.73
2019-02-11T02:22:16.347Z,1.00
2019-02-11T02:25:07.061Z,1.23
2019-02-11T02:27:56.725Z,3.37
2019-02-11T02:30:46.493Z,2.80
2019-02-11T02:33:37.910Z,1.37
2019-02-11T02:36:27.038Z,1.27
2019-02-11T02:39:16.950Z,2.87
2019-02-11T02:42:07.017Z,1.50
2019-02-11T02:44:56.444Z,1.73
2019-02-11T02:47:46.251Z,1.53
2019-02-11T02:50:37.114Z,2.10
2019-02-11T02:53:27.133Z,2.07
2019-02-11T02:56:17.319Z,1.07
2019-02-11T02:59:07.204Z,2.50
2019-02-11T03:01:57.635Z,1.53
2019-02-11T03:04:47.318Z,2.00
2019-02-11T03:07:37.210Z,1.57
2019-02-11T03:10:27.527Z,1.70
2019-02-11T03:13:17.242Z,1.87
2019-02-11T03:16:07.392Z,1.53
2019-02-11T03:18:57.369Z,1.73
2019-02-11T03:21:47.779Z,1.27
2019-02-11T03:24:37.616Z,0.80
2019-02-11T03:27:27.333Z,1.00
2019-02-11T03:30:16.931Z,1.23
2019-02-11T03:33:07.804Z,1.20
2019-02-11T03:35:57.071Z,2.83
2019-02-11T03:38:46.893Z,3.67
2019-02-11T03:41:37.065Z,2.50
2019-02-11T03:44:27.128Z,3.30
2019-02-11T03:47:16.821Z,2.93
2019-02-11T03:50:07.312Z,3.60
2019-02-11T03:52:57.007Z,1.30
2019-02-11T03:55:46.952Z,1.53
2019-02-11T03:58:36.742Z,2.10
2019-02-11T04:01:26.477Z,2.53
2019-02-11T04:04:16.802Z,6.10
2019-02-11T04:07:06.254Z,3.27
2019-02-11T04:09:56.261Z,13.20
2019-02-11T04:12:46.002Z,3.90
2019-02-11T04:15:36.437Z,1.33
2019-02-11T04:18:26.209Z,4.70
2019-02-11T04:21:16.208Z,3.63
2019-02-11T04:24:05.900Z,4.47
2019-02-11T04:26:55.934Z,5.50
2019-02-11T04:29:46.159Z,1.33
2019-02-11T04:32:36.126Z,9.27
2019-02-11T04:35:26.010Z,12.33
2019-02-11T04:38:15.448Z,20.00
2019-02-11T04:41:05.254Z,10.40
2019-02-11T04:43:54.819Z,5.07
2019-02-11T04:46:44.882Z,6.20
2019-02-11T04:49:34.913Z,46.73
2019-02-11T04:52:24.884Z,10.50
2019-02-11T04:55:14.839Z,4.97
2019-02-11T04:58:04.793Z,4.83
2019-02-11T05:00:54.732Z,11.17
2019-02-11T05:03:44.245Z,4.43
2019-02-11T05:06:33.929Z,6.33
2019-02-11T05:09:23.913Z,7.20
2019-02-11T05:12:13.994Z,4.07
2019-02-11T05:15:05.541Z,5.40
2019-02-11T05:17:55.811Z,8.80
2019-02-11T05:20:46.073Z,10.60
2019-02-11T05:23:36.110Z,7.20
2019-02-11T05:26:26.057Z,9.23
2019-02-11T05:29:16.554Z,13.90
2019-02-11T05:32:06.376Z,6.80
2019-02-11T05:34:56.194Z,4.40
2019-02-11T05:37:46.306Z,5.37
2019-02-11T05:40:36.182Z,7.13
2019-02-11T05:43:26.314Z,8.13
2019-02-11T05:46:16.635Z,10.20
2019-02-11T05:49:06.400Z,8.10
2019-02-11T05:51:55.847Z,5.03
2019-02-11T05:54:45.696Z,16.57
2019-02-11T05:57:35.543Z,5.67
2019-02-11T06:00:25.588Z,12.00
2019-02-11T06:03:16.553Z,9.33
2019-02-11T06:06:06.365Z,12.83
2019-02-11T06:08:56.294Z,3.53
2019-02-11T06:11:46.029Z,5.90
2019-02-11T06:14:36.695Z,23.87
2019-02-11T06:17:26.182Z,8.20
2019-02-11T06:20:15.871Z,16.73
2019-02-11T06:23:05.754Z,7.90
2019-02-11T06:25:56.126Z,6.37
2019-02-11T06:28:46.334Z,5.77
2019-02-11T06:31:36.562Z,10.20
2019-02-11T06:34:26.666Z,12.53
2019-02-11T06:37:16.399Z,15.70
2019-02-11T06:40:08.151Z,7.13
2019-02-11T06:42:57.836Z,10.73
2019-02-11T06:45:47.935Z,10.07
2019-02-11T06:48:37.406Z,5.23
2019-02-11T06:51:27.214Z,9.90
2019-02-11T06:54:17.117Z,2.63
2019-02-11T06:57:07.379Z,6.27
2019-02-11T06:59:57.169Z,5.20
2019-02-11T07:02:46.682Z,4.70
2019-02-11T07:05:37.036Z,5.20
2019-02-11T07:08:27.033Z,3.50
2019-02-11T07:11:16.835Z,7.17
2019-02-11T07:14:06.971Z,7.50
2019-02-11T07:16:56.762Z,3.93
2019-02-11T07:19:46.530Z,8.03
2019-02-11T07:22:36.299Z,8.83
2019-02-11T07:25:26.048Z,9.90
2019-02-11T07:28:15.842Z,6.70
2019-02-11T07:31:05.951Z,4.67
2019-02-11T07:33:55.837Z,3.90
2019-02-11T07:36:45.787Z,7.73
2019-02-11T07:39:38.842Z,18.33
2019-02-11T07:42:36.132Z,11.73
2019-02-11T07:45:35.536Z,8.57
2019-02-11T07:48:25.873Z,6.07
2019-02-11T07:51:15.535Z,4.93
2019-02-11T07:54:05.595Z,5.70
2019-02-11T07:56:55.416Z,4.77
2019-02-11T07:59:45.151Z,6.30
2019-02-11T08:02:35.025Z,14.10
2019-02-11T08:05:25.163Z,9.63
2019-02-11T08:08:14.805Z,6.70
2019-02-11T08:11:05.828Z,12.30
2019-02-11T08:13:56.236Z,5.07
2019-02-11T08:16:46.095Z,10.10
2019-02-11T08:19:35.579Z,13.97
2019-02-11T08:22:25.671Z,4.40
2019-02-11T08:25:15.819Z,13.80
2019-02-11T08:28:05.593Z,7.63
2019-02-11T08:30:54.821Z,6.13
2019-02-11T08:33:44.985Z,12.97
2019-02-11T08:36:34.391Z,7.27
2019-02-11T08:39:24.275Z,4.30
2019-02-11T08:42:14.004Z,10.93
2019-02-11T08:45:03.702Z,7.07
2019-02-11T08:47:53.361Z,11.60
2019-02-11T08:50:42.914Z,3.83
2019-02-11T08:53:32.974Z,10.10
2019-02-11T08:56:22.501Z,6.27
2019-02-11T08:59:11.889Z,3.77
2019-02-11T09:02:01.916Z,5.20
2019-02-11T09:04:51.637Z,6.30
2019-02-11T09:07:41.317Z,12.73
2019-02-11T09:10:30.739Z,6.50
2019-02-11T09:13:22.187Z,6.90
2019-02-11T09:16:12.098Z,10.30
2019-02-11T09:19:01.957Z,4.57
2019-02-11T09:21:51.519Z,11.33
2019-02-11T09:24:41.326Z,9.00
2019-02-11T09:27:31.081Z,6.53
2019-02-11T09:30:20.954Z,9.50
2019-02-11T09:33:11.922Z,7.10
2019-02-11T09:36:03.293Z,12.27
2019-02-11T09:38:53.113Z,3.03
2019-02-11T09:41:43.426Z,11.77
2019-02-11T09:44:33.778Z,7.60
2019-02-11T09:47:23.556Z,13.97
2019-02-11T09:50:39.574Z,8.17
2019-02-11T09:53:30.026Z,1.90
2019-02-11T09:56:19.798Z,4.50
2019-02-11T09:59:09.944Z,7.17
2019-02-11T10:01:59.795Z,6.97
2019-02-11T10:04:49.825Z,14.20
2019-02-11T10:07:39.245Z,3.17
2019-02-11T10:10:29.076Z,3.80
2019-02-11T10:13:18.929Z,8.63
2019-02-11T10:16:12.461Z,10.23
2019-02-11T10:19:00.019Z,11.73
2019-02-11T10:21:49.991Z,4.83
2019-02-11T10:24:40.400Z,1.80
2019-02-11T10:27:29.781Z,6.90
2019-02-11T10:30:19.601Z,4.73
2019-02-11T10:33:10.121Z,5.97
2019-02-11T10:36:01.784Z,9.03
2019-02-11T10:38:52.077Z,4.10
2019-02-11T10:41:41.910Z,2.70
2019-02-11T10:44:31.670Z,9.20
2019-02-11T10:47:21.408Z,7.80
2019-02-11T10:50:13.590Z,5.60
2019-02-11T10:53:03.399Z,4.33
2019-02-11T10:55:53.270Z,5.80
2019-02-11T10:58:44.156Z,7.33
2019-02-11T11:01:34.760Z,4.20
2019-02-11T11:04:24.822Z,6.07
2019-02-11T11:07:15.537Z,3.37
2019-02-11T11:10:09.098Z,7.50
2019-02-11T11:12:59.384Z,3.17
2019-02-11T11:15:49.075Z,3.53
2019-02-11T11:18:39.395Z,1.63
2019-02-11T11:21:29.166Z,5.77
2019-02-11T11:24:20.029Z,3.20
2019-02-11T11:27:10.564Z,3.03
2019-02-11T11:30:00.659Z,2.37
2019-02-11T11:32:50.893Z,3.77
2019-02-11T11:35:40.971Z,4.13
2019-02-11T11:38:30.954Z,3.60
2019-02-11T11:41:21.313Z,2.60
2019-02-11T11:44:11.314Z,5.43
2019-02-11T11:47:01.628Z,7.30
2019-02-11T11:49:51.822Z,3.10
2019-02-11T11:52:41.685Z,8.80
2019-02-11T11:55:31.725Z,19.80
2019-02-11T11:58:21.640Z,10.10
2019-02-11T12:01:11.801Z,15.73
2019-02-11T12:04:02.166Z,12.60
2019-02-11T12:06:53.358Z,4.93
2019-02-11T12:09:44.095Z,4.43
2019-02-11T12:12:34.459Z,8.87
2019-02-11T12:15:27.217Z,12.17
2019-02-11T12:18:17.877Z,14.43
2019-02-11T12:21:07.884Z,13.00
2019-02-11T12:23:58.041Z,13.53
2019-02-11T12:26:47.832Z,14.87
2019-02-11T12:29:39.232Z,13.60
2019-02-11T12:32:29.149Z,16.33
2019-02-11T12:35:18.903Z,8.67
2019-02-11T12:38:08.870Z,11.97
2019-02-11T12:40:58.975Z,13.60
2019-02-11T12:43:49.006Z,16.27
2019-02-11T12:46:38.560Z,16.90
2019-02-11T12:49:28.653Z,9.97
2019-02-11T12:52:18.338Z,10.13
2019-02-11T12:55:09.903Z,11.50
2019-02-11T12:57:59.854Z,8.60
2019-02-11T13:00:49.627Z,10.73
2019-02-11T13:03:39.753Z,18.17
2019-02-11T13:06:29.564Z,18.70
2019-02-11T13:09:19.262Z,13.10
2019-02-11T13:12:09.494Z,15.43
2019-02-11T13:14:59.456Z,24.47
2019-02-11T13:17:49.763Z,18.30
2019-02-11T13:20:39.957Z,15.20
2019-02-11T13:23:29.806Z,21.73
2019-02-11T13:26:19.771Z,16.63
2019-02-11T13:29:09.517Z,11.27
2019-02-11T13:31:58.912Z,9.43
2019-02-11T13:34:48.712Z,14.70
2019-02-11T13:37:39.251Z,7.83
2019-02-11T13:40:28.687Z,12.57
2019-02-11T13:43:18.811Z,10.40
2019-02-11T13:46:08.768Z,17.60
2019-02-11T13:48:58.925Z,17.00
2019-02-11T13:51:49.254Z,17.80
2019-02-11T13:54:38.825Z,6.10
2019-02-11T13:57:29.084Z,9.30
2019-02-11T14:00:23.468Z,17.90
2019-02-11T14:03:13.615Z,7.77
2019-02-11T14:06:04.160Z,20.07
2019-02-11T14:08:54.414Z,16.07
2019-02-11T14:11:44.281Z,10.10
2019-02-11T14:14:34.898Z,14.00
2019-02-11T14:17:24.599Z,9.53
2019-02-11T14:20:22.156Z,19.93
2019-02-11T14:23:12.176Z,11.50
2019-02-11T14:26:02.445Z,17.17
2019-02-11T14:28:52.821Z,9.07
2019-02-11T14:31:43.420Z,9.67
2019-02-11T14:34:33.524Z,6.63
2019-02-11T14:37:23.569Z,15.93
2019-02-11T14:40:14.106Z,11.83
2019-02-11T14:43:03.916Z,11.37
2019-02-11T14:45:53.686Z,14.93
2019-02-11T14:48:43.589Z,18.17
2019-02-11T14:51:33.184Z,22.23
2019-02-11T14:54:22.485Z,16.63
2019-02-11T14:57:12.588Z,13.23
2019-02-11T15:00:03.751Z,15.10
2019-02-11T15:02:54.787Z,14.50
2019-02-11T15:05:44.394Z,10.10
2019-02-11T15:08:34.472Z,11.57
2019-02-11T15:11:24.537Z,10.67
2019-02-11T15:14:14.312Z,10.37
2019-02-11T15:17:04.133Z,9.73
2019-02-11T15:19:54.026Z,8.83
2019-02-11T15:22:43.911Z,8.90
2019-02-11T15:25:33.772Z,6.17
2019-02-11T15:28:23.488Z,6.23
2019-02-11T15:31:13.274Z,5.07
2019-02-11T15:34:03.020Z,6.60
2019-02-11T15:36:53.467Z,4.90
2019-02-11T15:39:43.192Z,1.37
2019-02-11T15:42:33.007Z,3.77
2019-02-11T15:45:23.190Z,3.63
2019-02-11T15:48:12.623Z,1.80
2019-02-11T15:51:02.482Z,8.30
2019-02-11T15:53:52.443Z,5.90
2019-02-11T15:56:42.666Z,7.57
2019-02-11T15:59:32.666Z,6.43
2019-02-11T16:02:22.439Z,4.87
2019-02-11T16:05:16.551Z,3.90
2019-02-11T16:08:04.165Z,3.97
2019-02-11T16:11:01.245Z,6.73
2019-02-11T16:13:44.908Z,7.33
2019-02-11T16:16:35.106Z,6.53
2019-02-11T16:19:25.069Z,6.83
2019-02-11T16:22:15.004Z,5.17
2019-02-11T16:25:06.590Z,7.33
2019-02-11T16:27:57.958Z,5.80
2019-02-11T16:30:49.006Z,11.50
2019-02-11T16:33:39.302Z,7.33
2019-02-11T16:36:29.779Z,23.43
2019-02-11T16:39:19.974Z,6.43
2019-02-11T16:42:10.071Z,9.97
2019-02-11T16:44:59.858Z,11.50
2019-02-11T16:47:50.101Z,4.60
2019-02-11T16:50:40.222Z,12.13
2019-02-11T16:53:30.133Z,11.50
2019-02-11T16:56:19.724Z,13.53
2019-02-11T16:59:09.903Z,8.57
2019-02-11T17:01:59.882Z,21.43
2019-02-11T17:04:49.609Z,11.90
2019-02-11T17:07:42.296Z,8.43
2019-02-11T17:10:32.404Z,19.50
2019-02-11T17:13:21.574Z,13.70
2019-02-11T17:16:11.568Z,10.47
2019-02-11T17:19:09.034Z,16.33
2019-02-11T17:21:53.526Z,11.07
2019-02-11T17:24:43.509Z,16.60
2019-02-11T17:27:33.647Z,10.67
2019-02-11T17:30:26.117Z,11.50
2019-02-11T17:33:15.269Z,18.63
2019-02-11T17:36:04.895Z,7.03
2019-02-11T17:38:55.700Z,21.13
2019-02-11T17:41:45.233Z,12.50
2019-02-11T17:44:35.381Z,23.47
2019-02-11T17:47:24.771Z,21.93
2019-02-11T17:50:15.132Z,11.23
2019-02-11T17:53:06.786Z,21.13
2019-02-11T17:55:56.587Z,9.93
2019-02-11T17:58:45.891Z,17.30
2019-02-11T18:01:35.537Z,14.00
2019-02-11T18:04:25.444Z,39.43
2019-02-11T18:07:15.370Z,21.43
2019-02-11T18:10:06.347Z,25.60
2019-02-11T18:12:55.443Z,25.57
2019-02-11T18:15:45.459Z,16.23
2019-02-11T18:18:35.433Z,14.27
2019-02-11T18:21:25.202Z,21.47
2019-02-11T18:24:15.090Z,15.47
2019-02-11T18:27:04.533Z,21.43
2019-02-11T18:29:54.493Z,17.70
2019-02-11T18:32:44.230Z,23.30
2019-02-11T18:35:33.986Z,16.57
2019-02-11T18:38:23.719Z,13.13
2019-02-11T18:41:13.436Z,20.03
2019-02-11T18:44:02.900Z,14.27
2019-02-11T18:46:52.914Z,15.53
2019-02-11T18:49:42.154Z,11.90
2019-02-11T18:52:32.138Z,19.93
2019-02-11T18:55:22.113Z,16.23
2019-02-11T18:58:12.521Z,19.53
2019-02-11T19:01:02.706Z,30.23
2019-02-11T19:03:52.410Z,15.87
2019-02-11T19:06:42.601Z,12.23
2019-02-11T19:09:32.642Z,13.10
2019-02-11T19:12:22.599Z,14.87
2019-02-11T19:15:13.991Z,22.47
2019-02-11T19:18:04.870Z,19.83
2019-02-11T19:20:55.096Z,19.03
2019-02-11T19:23:45.303Z,18.47
2019-02-11T19:26:35.690Z,24.10
2019-02-11T19:29:25.924Z,27.00
2019-02-11T19:32:15.572Z,19.93
2019-02-11T19:35:05.743Z,14.43
2019-02-11T19:37:54.953Z,25.30
2019-02-11T19:40:44.667Z,30.30
2019-02-11T19:43:34.593Z,24.13
2019-02-11T19:46:24.416Z,23.20
2019-02-11T19:49:14.698Z,17.77
2019-02-11T19:52:04.485Z,21.10
2019-02-11T19:54:53.907Z,14.57
2019-02-11T19:57:43.812Z,19.27
2019-02-11T20:00:33.992Z,15.17
2019-02-11T20:03:23.711Z,25.17
2019-02-11T20:06:13.521Z,14.00
2019-02-11T20:09:04.645Z,20.17
2019-02-11T20:11:55.263Z,25.30
2019-02-11T20:14:45.211Z,11.40
2019-02-11T20:17:35.660Z,12.43
2019-02-11T20:20:25.329Z,22.90
2019-02-11T20:23:14.812Z,17.67
2019-02-11T20:26:04.774Z,14.73
2019-02-11T20:28:54.544Z,19.13
2019-02-11T20:31:44.560Z,18.27
2019-02-11T20:34:34.678Z,13.77
2019-02-11T20:37:24.926Z,14.13
2019-02-11T20:40:18.150Z,12.23
2019-02-11T20:43:07.910Z,11.93
2019-02-11T20:45:57.362Z,27.80
2019-02-11T20:48:46.507Z,22.73
2019-02-11T20:51:36.631Z,12.27
2019-02-11T20:54:26.689Z,25.40
2019-02-11T20:57:16.363Z,17.93
2019-02-11T21:00:10.890Z,14.57
2019-02-11T21:03:08.783Z,26.18
2019-02-11T21:05:58.942Z,36.70
2019-02-11T21:08:48.450Z,20.90
2019-02-11T21:11:38.071Z,19.53
2019-02-11T21:14:28.165Z,14.37
2019-02-11T21:17:17.751Z,10.97
2019-02-11T21:20:17.443Z,9.30
2019-02-11T21:23:04.069Z,15.43
2019-02-11T21:25:53.519Z,16.03
2019-02-11T21:28:42.985Z,15.53
2019-02-11T21:31:32.791Z,11.77
2019-02-11T21:34:22.608Z,18.50
2019-02-11T21:37:13.026Z,19.20
2019-02-11T21:40:03.221Z,14.97
2019-02-11T21:42:53.428Z,14.60
2019-02-11T21:45:43.100Z,21.03
2019-02-11T21:48:33.369Z,19.27
2019-02-11T21:51:23.219Z,16.13
2019-02-11T21:54:13.447Z,13.73
2019-02-11T21:57:04.257Z,12.07
2019-02-11T21:59:54.141Z,12.03
2019-02-11T22:02:44.269Z,19.70
2019-02-11T22:05:34.509Z,9.27
2019-02-11T22:08:24.003Z,9.47
2019-02-11T22:11:13.898Z,17.83
2019-02-11T22:14:04.227Z,14.60
2019-02-11T22:16:54.160Z,6.10
2019-02-11T22:19:44.065Z,7.93
2019-02-11T22:22:33.847Z,6.00
2019-02-11T22:25:23.630Z,8.83
2019-02-11T22:28:13.717Z,10.00
2019-02-11T22:31:03.853Z,20.40
2019-02-11T22:33:53.745Z,18.17
2019-02-11T22:36:43.722Z,14.33
2019-02-11T22:39:33.568Z,16.63
2019-02-11T22:42:23.620Z,8.20
2019-02-11T22:45:16.774Z,19.83
2019-02-11T22:48:06.724Z,13.20
2019-02-11T22:50:56.372Z,21.53
2019-02-11T22:53:46.684Z,8.80
2019-02-11T22:56:36.340Z,11.73
2019-02-11T22:59:26.336Z,6.70
2019-02-11T23:02:16.230Z,23.20
2019-02-11T23:05:06.291Z,13.20
2019-02-11T23:07:56.606Z,22.23
2019-02-11T23:10:46.347Z,13.30
2019-02-11T23:13:36.395Z,13.00
2019-02-11T23:16:27.742Z,7.90
2019-02-11T23:19:17.540Z,11.57
2019-02-11T23:22:07.792Z,12.83
2019-02-11T23:24:57.848Z,17.63
2019-02-11T23:27:48.075Z,11.83
2019-02-11T23:30:37.690Z,16.10
2019-02-11T23:33:28.230Z,10.60
2019-02-11T23:36:18.721Z,15.70
2019-02-11T23:39:14.468Z,9.80
2019-02-11T23:42:04.447Z,9.57
2019-02-11T23:44:54.354Z,12.63
2019-02-11T23:47:44.207Z,8.10
2019-02-11T23:50:34.071Z,16.07
2019-02-11T23:53:24.391Z,15.17
2019-02-11T23:56:13.813Z,15.63
2019-02-11T23:59:03.844Z,12.57
